sensor_id;sensor_type;location;lat;lon;timestamp;temperature;humidity
13211;DHT22;6670;51.53087800;7.23266500;2022-08-01T00:01:15;20.40;99.90
13211;DHT22;6670;51.53087800;7.23266500;2022-08-01T00:03:42;20.40;99.90
13211;DHT22;6670;51.53087800;7.23266500;2022-08-01T00:06:10;20.60;99.90
13211;DHT22;6670;51.53087800;7.23266500;2022-08-01T00:08:37;20.40;99.90
13211;DHT22;6670;51.53087800;7.23266500;2022-08-01T00:11:05;20.50;99.90
13211;DHT22;6670;51.53087800;7.23266500;2022-08-01T00:13:34;20.40;99.90
13211;DHT22;6670;51.53087800;7.23266500;2022-08-01T00:16:01;20.50;99.90
13211;DHT22;6670;51.53087800;7.23266500;2022-08-01T00:18:30;20.50;99.90
13211;DHT22;6670;51.53087800;7.23266500;2022-08-01T00:20:57;20.60;99.90
13211;DHT22;6670;51.53087800;7.23266500;2022-08-01T00:23:25;20.60;99.90
13211;DHT22;6670;51.53087800;7.23266500;2022-08-01T00:25:52;20.60;99.90
13211;DHT22;6670;51.53087800;7.23266500;2022-08-01T00:28:19;20.50;99.90
13211;DHT22;6670;51.53087800;7.23266500;2022-08-01T00:30:48;20.60;99.90
13211;DHT22;6670;51.53087800;7.23266500;2022-08-01T00:33:30;20.50;99.90
13211;DHT22;6670;51.53087800;7.23266500;2022-08-01T00:35:57;20.50;99.90
13211;DHT22;6670;51.53087800;7.23266500;2022-08-01T00:38:25;20.50;99.90
13211;DHT22;6670;51.53087800;7.23266500;2022-08-01T00:40:52;20.70;99.90
13211;DHT22;6670;51.53087800;7.23266500;2022-08-01T00:43:20;20.60;99.90
13211;DHT22;6670;51.53087800;7.23266500;2022-08-01T00:45:49;20.50;99.90
13211;DHT22;6670;51.53087800;7.23266500;2022-08-01T00:48:17;20.50;99.90
13211;DHT22;6670;51.53087800;7.23266500;2022-08-01T00:50:47;20.50;99.90
13211;DHT22;6670;51.53087800;7.23266500;2022-08-01T00:53:15;20.40;99.90
13211;DHT22;6670;51.53087800;7.23266500;2022-08-01T00:55:43;20.40;99.90
13211;DHT22;6670;51.53087800;7.23266500;2022-08-01T00:58:10;20.40;99.90
13211;DHT22;6670;51.53087800;7.23266500;2022-08-01T01:00:38;20.40;99.90
13211;DHT22;6670;51.53087800;7.23266500;2022-08-01T01:03:07;20.40;99.90
13211;DHT22;6670;51.53087800;7.23266500;2022-08-01T01:05:42;20.30;99.90
13211;DHT22;6670;51.53087800;7.23266500;2022-08-01T01:08:16;20.30;99.90
13211;DHT22;6670;51.53087800;7.23266500;2022-08-01T01:10:50;20.40;99.90
13211;DHT22;6670;51.53087800;7.23266500;2022-08-01T01:13:25;20.40;99.90
13211;DHT22;6670;51.53087800;7.23266500;2022-08-01T01:15:59;20.40;99.90
13211;DHT22;6670;51.53087800;7.23266500;2022-08-01T01:18:32;20.50;99.90
13211;DHT22;6670;51.53087800;7.23266500;2022-08-01T01:21:07;20.50;99.90
13211;DHT22;6670;51.53087800;7.23266500;2022-08-01T01:23:46;20.40;99.90
13211;DHT22;6670;51.53087800;7.23266500;2022-08-01T01:26:26;20.40;99.90
13211;DHT22;6670;51.53087800;7.23266500;2022-08-01T01:29:11;20.40;99.90
13211;DHT22;6670;51.53087800;7.23266500;2022-08-01T01:31:46;20.40;99.90
13211;DHT22;6670;51.53087800;7.23266500;2022-08-01T01:34:17;20.40;99.90
13211;DHT22;6670;51.53087800;7.23266500;2022-08-01T01:36:47;20.40;99.90
13211;DHT22;6670;51.53087800;7.23266500;2022-08-01T01:39:16;20.40;99.90
13211;DHT22;6670;51.53087800;7.23266500;2022-08-01T01:41:45;20.40;99.90
13211;DHT22;6670;51.53087800;7.23266500;2022-08-01T01:44:16;20.40;99.90
13211;DHT22;6670;51.53087800;7.23266500;2022-08-01T01:46:54;20.50;99.90
13211;DHT22;6670;51.53087800;7.23266500;2022-08-01T01:49:25;20.50;99.90
13211;DHT22;6670;51.53087800;7.23266500;2022-08-01T01:51:55;20.50;99.90
13211;DHT22;6670;51.53087800;7.23266500;2022-08-01T01:54:27;20.50;99.90
13211;DHT22;6670;51.53087800;7.23266500;2022-08-01T01:56:56;20.40;99.90
13211;DHT22;6670;51.53087800;7.23266500;2022-08-01T01:59:29;20.30;99.90
13211;DHT22;6670;51.53087800;7.23266500;2022-08-01T02:02:01;20.30;99.90
13211;DHT22;6670;51.53087800;7.23266500;2022-08-01T02:04:32;20.30;99.90
13211;DHT22;6670;51.53087800;7.23266500;2022-08-01T02:07:00;20.40;99.90
13211;DHT22;6670;51.53087800;7.23266500;2022-08-01T02:09:29;20.30;99.90
13211;DHT22;6670;51.53087800;7.23266500;2022-08-01T02:11:58;20.30;99.90
13211;DHT22;6670;51.53087800;7.23266500;2022-08-01T02:14:28;20.30;99.90
13211;DHT22;6670;51.53087800;7.23266500;2022-08-01T02:17:05;20.30;99.90
13211;DHT22;6670;51.53087800;7.23266500;2022-08-01T02:19:36;20.30;99.90
13211;DHT22;6670;51.53087800;7.23266500;2022-08-01T02:22:07;20.40;99.90
13211;DHT22;6670;51.53087800;7.23266500;2022-08-01T02:24:39;20.40;99.90
13211;DHT22;6670;51.53087800;7.23266500;2022-08-01T02:27:10;20.50;99.90
13211;DHT22;6670;51.53087800;7.23266500;2022-08-01T02:29:42;20.50;99.90
13211;DHT22;6670;51.53087800;7.23266500;2022-08-01T02:32:13;20.50;99.90
13211;DHT22;6670;51.53087800;7.23266500;2022-08-01T02:34:43;20.60;99.90
13211;DHT22;6670;51.53087800;7.23266500;2022-08-01T02:37:13;20.60;99.90
13211;DHT22;6670;51.53087800;7.23266500;2022-08-01T02:39:42;20.60;99.90
13211;DHT22;6670;51.53087800;7.23266500;2022-08-01T02:42:11;20.50;99.90
13211;DHT22;6670;51.53087800;7.23266500;2022-08-01T02:44:43;20.40;99.90
13211;DHT22;6670;51.53087800;7.23266500;2022-08-01T02:47:15;20.30;99.90
13211;DHT22;6670;51.53087800;7.23266500;2022-08-01T02:49:45;20.40;99.90
13211;DHT22;6670;51.53087800;7.23266500;2022-08-01T02:52:16;20.30;99.90
13211;DHT22;6670;51.53087800;7.23266500;2022-08-01T02:54:45;20.30;99.90
13211;DHT22;6670;51.53087800;7.23266500;2022-08-01T02:57:16;20.20;99.90
13211;DHT22;6670;51.53087800;7.23266500;2022-08-01T02:59:46;20.20;99.90
13211;DHT22;6670;51.53087800;7.23266500;2022-08-01T03:02:16;20.10;99.90
13211;DHT22;6670;51.53087800;7.23266500;2022-08-01T03:05:17;20.20;99.90
13211;DHT22;6670;51.53087800;7.23266500;2022-08-01T03:07:45;20.30;99.90
13211;DHT22;6670;51.53087800;7.23266500;2022-08-01T03:10:13;20.30;99.90
13211;DHT22;6670;51.53087800;7.23266500;2022-08-01T03:12:43;20.40;99.90
13211;DHT22;6670;51.53087800;7.23266500;2022-08-01T03:15:13;20.40;99.90
13211;DHT22;6670;51.53087800;7.23266500;2022-08-01T03:17:43;20.30;99.90
13211;DHT22;6670;51.53087800;7.23266500;2022-08-01T03:20:15;20.30;99.90
13211;DHT22;6670;51.53087800;7.23266500;2022-08-01T03:22:45;20.40;99.90
13211;DHT22;6670;51.53087800;7.23266500;2022-08-01T03:25:14;20.40;99.90
13211;DHT22;6670;51.53087800;7.23266500;2022-08-01T03:27:43;20.40;99.90
13211;DHT22;6670;51.53087800;7.23266500;2022-08-01T03:30:14;20.40;99.90
13211;DHT22;6670;51.53087800;7.23266500;2022-08-01T03:32:42;20.50;99.90
13211;DHT22;6670;51.53087800;7.23266500;2022-08-01T03:35:10;20.50;99.90
13211;DHT22;6670;51.53087800;7.23266500;2022-08-01T03:37:42;20.60;99.90
13211;DHT22;6670;51.53087800;7.23266500;2022-08-01T03:40:15;20.50;99.90
13211;DHT22;6670;51.53087800;7.23266500;2022-08-01T03:42:46;20.50;99.90
13211;DHT22;6670;51.53087800;7.23266500;2022-08-01T03:45:21;20.50;99.90
13211;DHT22;6670;51.53087800;7.23266500;2022-08-01T03:47:54;20.60;99.90
13211;DHT22;6670;51.53087800;7.23266500;2022-08-01T03:50:23;20.40;99.90
13211;DHT22;6670;51.53087800;7.23266500;2022-08-01T03:52:53;20.50;99.90
13211;DHT22;6670;51.53087800;7.23266500;2022-08-01T03:55:22;20.60;99.90
13211;DHT22;6670;51.53087800;7.23266500;2022-08-01T03:57:50;20.60;99.90
13211;DHT22;6670;51.53087800;7.23266500;2022-08-01T04:00:20;20.70;99.90
13211;DHT22;6670;51.53087800;7.23266500;2022-08-01T04:02:51;20.70;99.90
13211;DHT22;6670;51.53087800;7.23266500;2022-08-01T04:05:18;20.70;99.90
13211;DHT22;6670;51.53087800;7.23266500;2022-08-01T04:07:47;20.70;99.90
13211;DHT22;6670;51.53087800;7.23266500;2022-08-01T04:10:21;20.60;99.90
13211;DHT22;6670;51.53087800;7.23266500;2022-08-01T04:12:49;20.70;99.90
13211;DHT22;6670;51.53087800;7.23266500;2022-08-01T04:15:16;20.60;99.90
13211;DHT22;6670;51.53087800;7.23266500;2022-08-01T04:17:46;20.60;99.90
13211;DHT22;6670;51.53087800;7.23266500;2022-08-01T04:20:14;20.60;99.90
13211;DHT22;6670;51.53087800;7.23266500;2022-08-01T04:22:42;20.70;99.90
13211;DHT22;6670;51.53087800;7.23266500;2022-08-01T04:25:14;20.80;99.90
13211;DHT22;6670;51.53087800;7.23266500;2022-08-01T04:27:46;20.70;99.90
13211;DHT22;6670;51.53087800;7.23266500;2022-08-01T04:30:15;20.70;99.90
13211;DHT22;6670;51.53087800;7.23266500;2022-08-01T04:32:47;20.80;99.90
13211;DHT22;6670;51.53087800;7.23266500;2022-08-01T04:35:18;20.70;99.90
13211;DHT22;6670;51.53087800;7.23266500;2022-08-01T04:37:47;20.80;99.90
13211;DHT22;6670;51.53087800;7.23266500;2022-08-01T04:40:17;20.70;99.90
13211;DHT22;6670;51.53087800;7.23266500;2022-08-01T04:42:45;20.80;99.90
13211;DHT22;6670;51.53087800;7.23266500;2022-08-01T04:45:15;20.90;99.90
13211;DHT22;6670;51.53087800;7.23266500;2022-08-01T04:47:44;21.00;99.90
13211;DHT22;6670;51.53087800;7.23266500;2022-08-01T04:50:15;21.00;99.90
13211;DHT22;6670;51.53087800;7.23266500;2022-08-01T04:52:42;20.90;99.90
13211;DHT22;6670;51.53087800;7.23266500;2022-08-01T04:55:10;20.80;99.90
13211;DHT22;6670;51.53087800;7.23266500;2022-08-01T04:57:39;20.90;99.90
13211;DHT22;6670;51.53087800;7.23266500;2022-08-01T05:00:08;20.80;99.90
13211;DHT22;6670;51.53087800;7.23266500;2022-08-01T05:03:05;20.90;99.90
13211;DHT22;6670;51.53087800;7.23266500;2022-08-01T05:05:34;20.70;99.90
13211;DHT22;6670;51.53087800;7.23266500;2022-08-01T05:08:10;20.80;99.90
13211;DHT22;6670;51.53087800;7.23266500;2022-08-01T05:10:38;21.00;99.90
13211;DHT22;6670;51.53087800;7.23266500;2022-08-01T05:13:05;21.00;99.90
13211;DHT22;6670;51.53087800;7.23266500;2022-08-01T05:15:35;21.00;99.90
13211;DHT22;6670;51.53087800;7.23266500;2022-08-01T05:18:04;21.00;99.90
13211;DHT22;6670;51.53087800;7.23266500;2022-08-01T05:20:31;21.00;99.90
13211;DHT22;6670;51.53087800;7.23266500;2022-08-01T05:23:25;20.90;99.90
13211;DHT22;6670;51.53087800;7.23266500;2022-08-01T05:26:02;20.90;99.90
13211;DHT22;6670;51.53087800;7.23266500;2022-08-01T05:28:32;20.90;99.90
13211;DHT22;6670;51.53087800;7.23266500;2022-08-01T05:30:59;20.80;99.90
13211;DHT22;6670;51.53087800;7.23266500;2022-08-01T05:33:51;20.80;99.90
13211;DHT22;6670;51.53087800;7.23266500;2022-08-01T05:36:19;20.80;99.90
13211;DHT22;6670;51.53087800;7.23266500;2022-08-01T05:38:48;20.70;99.90
13211;DHT22;6670;51.53087800;7.23266500;2022-08-01T05:41:15;20.70;99.90
13211;DHT22;6670;51.53087800;7.23266500;2022-08-01T05:43:49;20.70;99.90
13211;DHT22;6670;51.53087800;7.23266500;2022-08-01T05:46:17;20.70;99.90
13211;DHT22;6670;51.53087800;7.23266500;2022-08-01T05:48:44;20.70;99.90
13211;DHT22;6670;51.53087800;7.23266500;2022-08-01T05:51:12;20.80;99.90
13211;DHT22;6670;51.53087800;7.23266500;2022-08-01T05:53:39;20.80;99.90
13211;DHT22;6670;51.53087800;7.23266500;2022-08-01T05:56:21;20.80;99.90
13211;DHT22;6670;51.53087800;7.23266500;2022-08-01T05:58:59;20.80;99.90
13211;DHT22;6670;51.53087800;7.23266500;2022-08-01T06:01:34;20.70;99.90
13211;DHT22;6670;51.53087800;7.23266500;2022-08-01T06:04:03;20.80;99.90
13211;DHT22;6670;51.53087800;7.23266500;2022-08-01T06:06:30;20.70;99.90
13211;DHT22;6670;51.53087800;7.23266500;2022-08-01T06:08:59;20.70;99.90
13211;DHT22;6670;51.53087800;7.23266500;2022-08-01T06:11:28;20.70;99.90
13211;DHT22;6670;51.53087800;7.23266500;2022-08-01T06:13:59;20.70;99.90
13211;DHT22;6670;51.53087800;7.23266500;2022-08-01T06:16:27;20.80;99.90
13211;DHT22;6670;51.53087800;7.23266500;2022-08-01T06:18:54;20.90;99.90
13211;DHT22;6670;51.53087800;7.23266500;2022-08-01T06:21:22;20.70;99.90
13211;DHT22;6670;51.53087800;7.23266500;2022-08-01T06:23:51;20.80;99.90
13211;DHT22;6670;51.53087800;7.23266500;2022-08-01T06:26:19;20.90;99.90
13211;DHT22;6670;51.53087800;7.23266500;2022-08-01T06:28:48;20.90;99.90
13211;DHT22;6670;51.53087800;7.23266500;2022-08-01T06:31:15;20.60;99.90
13211;DHT22;6670;51.53087800;7.23266500;2022-08-01T06:33:42;20.70;99.90
13211;DHT22;6670;51.53087800;7.23266500;2022-08-01T06:36:10;20.70;99.90
13211;DHT22;6670;51.53087800;7.23266500;2022-08-01T06:38:37;20.60;99.90
13211;DHT22;6670;51.53087800;7.23266500;2022-08-01T06:41:10;20.90;99.90
13211;DHT22;6670;51.53087800;7.23266500;2022-08-01T06:43:37;21.00;99.90
13211;DHT22;6670;51.53087800;7.23266500;2022-08-01T06:46:06;21.20;99.90
13211;DHT22;6670;51.53087800;7.23266500;2022-08-01T06:48:34;21.30;99.90
13211;DHT22;6670;51.53087800;7.23266500;2022-08-01T06:51:05;21.20;99.90
13211;DHT22;6670;51.53087800;7.23266500;2022-08-01T06:53:38;21.30;99.90
13211;DHT22;6670;51.53087800;7.23266500;2022-08-01T06:56:06;21.30;99.90
13211;DHT22;6670;51.53087800;7.23266500;2022-08-01T07:02:25;21.00;99.90
13211;DHT22;6670;51.53087800;7.23266500;2022-08-01T07:04:53;21.00;99.90
13211;DHT22;6670;51.53087800;7.23266500;2022-08-01T07:07:21;21.10;99.90
13211;DHT22;6670;51.53087800;7.23266500;2022-08-01T07:09:48;21.20;99.90
13211;DHT22;6670;51.53087800;7.23266500;2022-08-01T07:12:16;21.10;99.90
13211;DHT22;6670;51.53087800;7.23266500;2022-08-01T07:14:52;21.10;99.90
13211;DHT22;6670;51.53087800;7.23266500;2022-08-01T07:17:28;21.10;99.90
13211;DHT22;6670;51.53087800;7.23266500;2022-08-01T07:19:56;21.10;99.90
13211;DHT22;6670;51.53087800;7.23266500;2022-08-01T07:22:23;21.20;99.90
13211;DHT22;6670;51.53087800;7.23266500;2022-08-01T07:24:51;21.00;99.90
13211;DHT22;6670;51.53087800;7.23266500;2022-08-01T07:27:18;20.90;99.90
13211;DHT22;6670;51.53087800;7.23266500;2022-08-01T07:29:46;20.70;99.90
13211;DHT22;6670;51.53087800;7.23266500;2022-08-01T07:32:15;20.70;99.90
13211;DHT22;6670;51.53087800;7.23266500;2022-08-01T07:34:44;20.80;99.90
13211;DHT22;6670;51.53087800;7.23266500;2022-08-01T07:40:19;21.00;99.90
13211;DHT22;6670;51.53087800;7.23266500;2022-08-01T07:42:47;21.00;99.90
13211;DHT22;6670;51.53087800;7.23266500;2022-08-01T07:45:14;20.90;99.90
13211;DHT22;6670;51.53087800;7.23266500;2022-08-01T07:47:42;20.90;99.90
13211;DHT22;6670;51.53087800;7.23266500;2022-08-01T07:50:14;20.80;99.90
13211;DHT22;6670;51.53087800;7.23266500;2022-08-01T07:52:42;21.00;99.90
13211;DHT22;6670;51.53087800;7.23266500;2022-08-01T07:55:10;21.10;99.90
13211;DHT22;6670;51.53087800;7.23266500;2022-08-01T07:57:38;21.10;99.90
13211;DHT22;6670;51.53087800;7.23266500;2022-08-01T08:00:16;21.10;99.90
13211;DHT22;6670;51.53087800;7.23266500;2022-08-01T08:02:51;21.20;99.90
13211;DHT22;6670;51.53087800;7.23266500;2022-08-01T08:05:37;21.20;99.90
13211;DHT22;6670;51.53087800;7.23266500;2022-08-01T08:08:05;21.10;99.90
13211;DHT22;6670;51.53087800;7.23266500;2022-08-01T08:10:34;21.10;99.90
13211;DHT22;6670;51.53087800;7.23266500;2022-08-01T08:13:02;21.10;99.90
13211;DHT22;6670;51.53087800;7.23266500;2022-08-01T08:15:39;21.10;99.90
13211;DHT22;6670;51.53087800;7.23266500;2022-08-01T08:18:06;21.10;99.90
13211;DHT22;6670;51.53087800;7.23266500;2022-08-01T08:20:34;21.20;99.90
13211;DHT22;6670;51.53087800;7.23266500;2022-08-01T08:23:02;21.20;99.90
13211;DHT22;6670;51.53087800;7.23266500;2022-08-01T08:25:50;21.30;99.90
13211;DHT22;6670;51.53087800;7.23266500;2022-08-01T08:28:18;21.40;99.90
13211;DHT22;6670;51.53087800;7.23266500;2022-08-01T08:30:45;21.50;99.90
13211;DHT22;6670;51.53087800;7.23266500;2022-08-01T08:33:13;21.60;99.90
13211;DHT22;6670;51.53087800;7.23266500;2022-08-01T08:35:40;21.50;99.90
13211;DHT22;6670;51.53087800;7.23266500;2022-08-01T08:38:09;21.60;99.90
13211;DHT22;6670;51.53087800;7.23266500;2022-08-01T08:40:36;21.50;99.90
13211;DHT22;6670;51.53087800;7.23266500;2022-08-01T08:43:05;21.30;99.90
13211;DHT22;6670;51.53087800;7.23266500;2022-08-01T08:45:35;21.40;99.90
13211;DHT22;6670;51.53087800;7.23266500;2022-08-01T08:48:05;21.50;99.90
13211;DHT22;6670;51.53087800;7.23266500;2022-08-01T08:50:41;21.60;99.90
13211;DHT22;6670;51.53087800;7.23266500;2022-08-01T08:53:13;21.60;99.90
13211;DHT22;6670;51.53087800;7.23266500;2022-08-01T08:55:42;21.80;99.90
13211;DHT22;6670;51.53087800;7.23266500;2022-08-01T08:58:12;21.70;99.90
13211;DHT22;6670;51.53087800;7.23266500;2022-08-01T09:00:48;21.70;99.90
13211;DHT22;6670;51.53087800;7.23266500;2022-08-01T09:03:15;21.70;99.90
13211;DHT22;6670;51.53087800;7.23266500;2022-08-01T09:05:43;21.90;99.90
13211;DHT22;6670;51.53087800;7.23266500;2022-08-01T09:08:13;22.00;99.90
13211;DHT22;6670;51.53087800;7.23266500;2022-08-01T09:10:40;22.00;99.90
13211;DHT22;6670;51.53087800;7.23266500;2022-08-01T09:13:10;22.00;99.90
13211;DHT22;6670;51.53087800;7.23266500;2022-08-01T09:15:43;21.90;99.90
13211;DHT22;6670;51.53087800;7.23266500;2022-08-01T09:18:30;22.00;99.90
13211;DHT22;6670;51.53087800;7.23266500;2022-08-01T09:21:14;22.10;99.90
13211;DHT22;6670;51.53087800;7.23266500;2022-08-01T09:23:58;22.20;99.90
13211;DHT22;6670;51.53087800;7.23266500;2022-08-01T09:26:31;22.20;99.90
13211;DHT22;6670;51.53087800;7.23266500;2022-08-01T09:28:59;22.20;99.90
13211;DHT22;6670;51.53087800;7.23266500;2022-08-01T09:31:38;22.10;99.90
13211;DHT22;6670;51.53087800;7.23266500;2022-08-01T09:34:26;22.10;99.90
13211;DHT22;6670;51.53087800;7.23266500;2022-08-01T09:36:55;22.20;99.90
13211;DHT22;6670;51.53087800;7.23266500;2022-08-01T09:39:26;22.30;99.90
13211;DHT22;6670;51.53087800;7.23266500;2022-08-01T09:41:55;22.30;99.90
13211;DHT22;6670;51.53087800;7.23266500;2022-08-01T09:44:37;22.20;99.90
13211;DHT22;6670;51.53087800;7.23266500;2022-08-01T09:47:06;22.30;99.90
13211;DHT22;6670;51.53087800;7.23266500;2022-08-01T09:49:35;22.30;99.90
13211;DHT22;6670;51.53087800;7.23266500;2022-08-01T09:52:12;22.50;99.90
13211;DHT22;6670;51.53087800;7.23266500;2022-08-01T09:54:42;22.50;99.90
13211;DHT22;6670;51.53087800;7.23266500;2022-08-01T09:57:13;22.60;99.90
13211;DHT22;6670;51.53087800;7.23266500;2022-08-01T10:00:00;22.60;99.90
13211;DHT22;6670;51.53087800;7.23266500;2022-08-01T10:02:39;22.70;99.90
13211;DHT22;6670;51.53087800;7.23266500;2022-08-01T10:05:15;22.80;99.90
13211;DHT22;6670;51.53087800;7.23266500;2022-08-01T10:07:56;22.50;99.90
13211;DHT22;6670;51.53087800;7.23266500;2022-08-01T10:10:37;22.70;99.90
13211;DHT22;6670;51.53087800;7.23266500;2022-08-01T10:13:08;22.90;99.90
13211;DHT22;6670;51.53087800;7.23266500;2022-08-01T10:15:40;23.00;99.90
13211;DHT22;6670;51.53087800;7.23266500;2022-08-01T10:18:09;22.80;99.90
13211;DHT22;6670;51.53087800;7.23266500;2022-08-01T10:20:37;22.60;99.90
13211;DHT22;6670;51.53087800;7.23266500;2022-08-01T10:23:05;22.60;99.90
13211;DHT22;6670;51.53087800;7.23266500;2022-08-01T10:25:35;22.60;99.90
13211;DHT22;6670;51.53087800;7.23266500;2022-08-01T10:28:11;22.50;99.90
13211;DHT22;6670;51.53087800;7.23266500;2022-08-01T10:30:41;22.40;99.90
13211;DHT22;6670;51.53087800;7.23266500;2022-08-01T10:33:10;22.20;99.90
13211;DHT22;6670;51.53087800;7.23266500;2022-08-01T10:35:45;22.00;99.90
13211;DHT22;6670;51.53087800;7.23266500;2022-08-01T10:38:12;22.10;99.90
13211;DHT22;6670;51.53087800;7.23266500;2022-08-01T10:40:41;22.20;99.90
13211;DHT22;6670;51.53087800;7.23266500;2022-08-01T10:43:11;22.20;99.90
13211;DHT22;6670;51.53087800;7.23266500;2022-08-01T10:45:39;22.10;99.90
13211;DHT22;6670;51.53087800;7.23266500;2022-08-01T10:48:12;22.10;99.90
13211;DHT22;6670;51.53087800;7.23266500;2022-08-01T10:50:43;22.10;99.90
13211;DHT22;6670;51.53087800;7.23266500;2022-08-01T10:53:13;22.10;99.90
13211;DHT22;6670;51.53087800;7.23266500;2022-08-01T10:55:50;22.10;99.90
13211;DHT22;6670;51.53087800;7.23266500;2022-08-01T10:58:23;22.40;99.90
13211;DHT22;6670;51.53087800;7.23266500;2022-08-01T11:01:15;22.70;99.90
13211;DHT22;6670;51.53087800;7.23266500;2022-08-01T11:03:44;23.10;99.90
13211;DHT22;6670;51.53087800;7.23266500;2022-08-01T11:06:52;22.90;99.90
13211;DHT22;6670;51.53087800;7.23266500;2022-08-01T11:09:29;22.90;99.90
13211;DHT22;6670;51.53087800;7.23266500;2022-08-01T11:11:59;22.80;99.90
13211;DHT22;6670;51.53087800;7.23266500;2022-08-01T11:14:29;22.90;99.90
13211;DHT22;6670;51.53087800;7.23266500;2022-08-01T11:20:08;23.00;99.90
13211;DHT22;6670;51.53087800;7.23266500;2022-08-01T11:26:21;23.00;99.90
13211;DHT22;6670;51.53087800;7.23266500;2022-08-01T11:29:21;22.70;99.90
13211;DHT22;6670;51.53087800;7.23266500;2022-08-01T11:31:50;22.70;99.90
13211;DHT22;6670;51.53087800;7.23266500;2022-08-01T11:34:18;22.90;99.90
13211;DHT22;6670;51.53087800;7.23266500;2022-08-01T11:36:46;23.10;99.90
13211;DHT22;6670;51.53087800;7.23266500;2022-08-01T11:39:16;23.10;99.90
13211;DHT22;6670;51.53087800;7.23266500;2022-08-01T11:41:44;23.30;99.90
13211;DHT22;6670;51.53087800;7.23266500;2022-08-01T11:44:15;23.50;99.90
13211;DHT22;6670;51.53087800;7.23266500;2022-08-01T11:46:52;23.70;99.90
13211;DHT22;6670;51.53087800;7.23266500;2022-08-01T11:49:25;23.80;99.90
13211;DHT22;6670;51.53087800;7.23266500;2022-08-01T11:52:00;23.70;99.90
13211;DHT22;6670;51.53087800;7.23266500;2022-08-01T11:54:30;23.50;99.90
13211;DHT22;6670;51.53087800;7.23266500;2022-08-01T11:56:59;23.50;99.90
13211;DHT22;6670;51.53087800;7.23266500;2022-08-01T11:59:27;23.80;99.90
13211;DHT22;6670;51.53087800;7.23266500;2022-08-01T12:01:56;23.70;99.90
13211;DHT22;6670;51.53087800;7.23266500;2022-08-01T12:04:24;23.50;99.90
13211;DHT22;6670;51.53087800;7.23266500;2022-08-01T12:06:52;23.30;99.90
13211;DHT22;6670;51.53087800;7.23266500;2022-08-01T12:09:23;23.50;99.90
13211;DHT22;6670;51.53087800;7.23266500;2022-08-01T12:11:52;23.60;99.90
13211;DHT22;6670;51.53087800;7.23266500;2022-08-01T12:14:21;23.60;99.90
13211;DHT22;6670;51.53087800;7.23266500;2022-08-01T12:16:50;23.60;99.90
13211;DHT22;6670;51.53087800;7.23266500;2022-08-01T12:19:23;23.70;99.90
13211;DHT22;6670;51.53087800;7.23266500;2022-08-01T12:22:08;23.90;99.90
13211;DHT22;6670;51.53087800;7.23266500;2022-08-01T12:24:37;24.10;99.90
13211;DHT22;6670;51.53087800;7.23266500;2022-08-01T12:27:06;24.40;99.90
13211;DHT22;6670;51.53087800;7.23266500;2022-08-01T12:29:35;24.60;99.90
13211;DHT22;6670;51.53087800;7.23266500;2022-08-01T12:32:04;24.40;99.90
13211;DHT22;6670;51.53087800;7.23266500;2022-08-01T12:34:49;24.20;99.90
13211;DHT22;6670;51.53087800;7.23266500;2022-08-01T12:37:16;23.80;99.90
13211;DHT22;6670;51.53087800;7.23266500;2022-08-01T12:39:45;23.70;99.90
13211;DHT22;6670;51.53087800;7.23266500;2022-08-01T12:42:14;23.70;99.90
13211;DHT22;6670;51.53087800;7.23266500;2022-08-01T12:44:44;23.90;99.90
13211;DHT22;6670;51.53087800;7.23266500;2022-08-01T12:47:12;24.10;99.90
13211;DHT22;6670;51.53087800;7.23266500;2022-08-01T12:49:42;24.10;99.90
13211;DHT22;6670;51.53087800;7.23266500;2022-08-01T12:52:12;24.10;99.90
13211;DHT22;6670;51.53087800;7.23266500;2022-08-01T12:55:02;24.10;99.90
13211;DHT22;6670;51.53087800;7.23266500;2022-08-01T12:57:30;24.10;99.90
13211;DHT22;6670;51.53087800;7.23266500;2022-08-01T13:00:16;24.40;99.90
13211;DHT22;6670;51.53087800;7.23266500;2022-08-01T13:02:45;24.70;99.90
13211;DHT22;6670;51.53087800;7.23266500;2022-08-01T13:05:14;24.90;99.90
13211;DHT22;6670;51.53087800;7.23266500;2022-08-01T13:07:45;24.70;99.90
13211;DHT22;6670;51.53087800;7.23266500;2022-08-01T13:10:15;24.60;99.90
13211;DHT22;6670;51.53087800;7.23266500;2022-08-01T13:12:51;24.30;99.90
13211;DHT22;6670;51.53087800;7.23266500;2022-08-01T13:15:22;24.00;99.90
13211;DHT22;6670;51.53087800;7.23266500;2022-08-01T13:17:50;23.90;99.90
13211;DHT22;6670;51.53087800;7.23266500;2022-08-01T13:20:25;23.70;99.90
13211;DHT22;6670;51.53087800;7.23266500;2022-08-01T13:22:57;24.10;99.90
13211;DHT22;6670;51.53087800;7.23266500;2022-08-01T13:25:47;24.20;99.90
13211;DHT22;6670;51.53087800;7.23266500;2022-08-01T13:28:15;24.30;99.90
13211;DHT22;6670;51.53087800;7.23266500;2022-08-01T13:30:55;23.80;99.90
13211;DHT22;6670;51.53087800;7.23266500;2022-08-01T13:33:23;23.70;99.90
13211;DHT22;6670;51.53087800;7.23266500;2022-08-01T13:35:51;24.10;99.90
13211;DHT22;6670;51.53087800;7.23266500;2022-08-01T13:38:21;24.40;99.90
13211;DHT22;6670;51.53087800;7.23266500;2022-08-01T13:41:09;24.20;99.90
13211;DHT22;6670;51.53087800;7.23266500;2022-08-01T13:43:36;24.30;99.90
13211;DHT22;6670;51.53087800;7.23266500;2022-08-01T13:46:04;24.20;99.90
13211;DHT22;6670;51.53087800;7.23266500;2022-08-01T13:48:32;24.20;99.90
13211;DHT22;6670;51.53087800;7.23266500;2022-08-01T13:51:00;24.10;99.90
13211;DHT22;6670;51.53087800;7.23266500;2022-08-01T13:53:29;24.20;99.90
13211;DHT22;6670;51.53087800;7.23266500;2022-08-01T13:55:56;24.40;99.90
13211;DHT22;6670;51.53087800;7.23266500;2022-08-01T13:58:24;24.50;99.90
13211;DHT22;6670;51.53087800;7.23266500;2022-08-01T14:00:51;24.40;99.90
13211;DHT22;6670;51.53087800;7.23266500;2022-08-01T14:03:19;24.30;99.90
13211;DHT22;6670;51.53087800;7.23266500;2022-08-01T14:05:46;24.20;99.90
13211;DHT22;6670;51.53087800;7.23266500;2022-08-01T14:08:14;24.30;99.90
13211;DHT22;6670;51.53087800;7.23266500;2022-08-01T14:10:43;24.10;99.90